createdAt,value
2019-02-16T00:10:30.644Z,89.199997
2019-02-16T00:15:32.925Z,89.199997
2019-02-16T00:20:35.110Z,88
2019-02-16T00:25:37.499Z,86.599998
2019-02-16T00:30:39.756Z,89.699997
2019-02-16T00:35:42.025Z,95.900002
2019-02-16T00:40:44.339Z,99.900002
2019-02-16T00:45:46.623Z,99.900002
2019-02-16T00:50:50.770Z,99.900002
2019-02-16T00:55:51.145Z,99.900002
2019-02-16T01:00:53.495Z,99.900002
2019-02-16T01:05:55.780Z,99.900002
2019-02-16T01:10:58.092Z,99.900002
2019-02-16T01:16:00.411Z,99.900002
2019-02-16T01:21:02.711Z,99.900002
2019-02-16T01:26:05.097Z,99.900002
2019-02-16T01:31:08.391Z,99.900002
2019-02-16T01:44:43.668Z,99.900002
2019-02-16T01:49:45.988Z,99.900002
2019-02-16T01:54:48.279Z,99.900002
2019-02-16T01:59:50.603Z,99.900002
2019-02-16T02:04:53.121Z,99.900002
2019-02-16T02:09:55.188Z,99.900002
2019-02-16T02:14:57.397Z,99.900002
2019-02-16T02:19:59.736Z,99.900002
2019-02-16T02:25:01.966Z,99.900002
2019-02-16T02:30:04.370Z,99.900002
2019-02-16T02:35:06.569Z,99.900002
2019-02-16T02:40:08.868Z,99.900002
2019-02-16T02:45:11.241Z,99.900002
2019-02-16T02:50:13.580Z,99.900002
2019-02-16T02:55:15.778Z,99.900002
2019-02-16T03:00:18.119Z,99.900002
2019-02-16T03:05:20.378Z,99.900002
2019-02-16T03:10:22.712Z,99.900002
2019-02-16T03:15:24.974Z,99.900002
2019-02-16T03:20:27.224Z,99.900002
2019-02-16T03:25:29.504Z,99.900002
2019-02-16T03:30:31.866Z,99.900002
2019-02-16T03:35:34.163Z,99.900002
2019-02-16T03:40:36.434Z,99.900002
2019-02-16T03:45:38.655Z,99.900002
2019-02-16T03:50:40.971Z,99.900002
2019-02-16T03:55:43.245Z,99.900002
2019-02-16T04:00:45.719Z,99.900002
2019-02-16T04:05:47.994Z,99.900002
2019-02-16T04:10:50.178Z,99.900002
2019-02-16T04:15:52.527Z,99.900002
2019-02-16T04:20:55.739Z,99.900002
2019-02-16T04:25:57.105Z,99.900002
2019-02-16T04:30:59.387Z,99.900002
2019-02-16T04:36:01.671Z,99.900002
2019-02-16T04:41:03.870Z,99.900002
2019-02-16T04:46:06.258Z,99.900002
2019-02-16T04:51:08.523Z,99.900002
2019-02-16T04:56:10.825Z,99.900002
2019-02-16T05:01:13.170Z,99.900002
2019-02-16T05:06:15.438Z,99.900002
2019-02-16T05:11:17.685Z,99.900002
2019-02-16T05:16:19.908Z,99.900002
2019-02-16T05:21:22.394Z,99.900002
2019-02-16T05:26:24.564Z,99.900002
2019-02-16T05:31:26.899Z,99.900002
2019-02-16T05:36:29.173Z,99.900002
2019-02-16T05:41:31.399Z,99.900002
2019-02-16T05:46:33.773Z,99.900002
2019-02-16T05:51:36.066Z,99.900002
2019-02-16T05:56:38.319Z,99.900002
2019-02-16T06:01:40.646Z,99.900002
2019-02-16T06:06:42.958Z,99.900002
2019-02-16T06:11:49.693Z,99.900002
2019-02-16T06:16:48.791Z,99.900002
2019-02-16T06:30:22.922Z,99.900002
2019-02-16T06:35:26.176Z,99.900002
2019-02-16T06:40:27.668Z,99.900002
2019-02-16T06:45:29.709Z,99.900002
2019-02-16T06:50:36.907Z,99.900002
2019-02-16T06:55:34.868Z,99.900002
2019-02-16T07:00:36.650Z,99.900002
2019-02-16T07:05:38.968Z,99.900002
2019-02-16T07:10:41.277Z,99.900002
2019-02-16T07:15:43.592Z,99.900002
2019-02-16T07:20:45.909Z,99.900002
2019-02-16T07:25:48.075Z,99.900002
2019-02-16T07:30:50.429Z,99.900002
2019-02-16T07:35:52.633Z,99.900002
2019-02-16T07:40:55.029Z,99.900002
2019-02-16T07:45:57.330Z,99.900002
2019-02-16T07:50:59.657Z,99.900002
2019-02-16T07:56:01.901Z,99.900002
2019-02-16T08:01:04.128Z,99.900002
2019-02-16T08:06:06.478Z,99.900002
2019-02-16T08:11:08.758Z,99.900002
2019-02-16T08:16:11.282Z,99.900002
2019-02-16T08:21:13.412Z,99.900002
2019-02-16T08:26:15.689Z,99.900002
2019-02-16T08:31:18.056Z,99.900002
2019-02-16T08:36:20.292Z,99.900002
2019-02-16T08:41:22.609Z,99.900002
2019-02-16T08:46:24.782Z,99.900002
2019-02-16T08:51:27.147Z,99.900002
2019-02-16T08:56:29.381Z,99.900002
2019-02-16T09:01:31.712Z,99.900002
2019-02-16T09:06:34.021Z,99.900002
2019-02-16T09:11:36.327Z,99.5
2019-02-16T09:16:38.595Z,95.199997
2019-02-16T09:21:40.988Z,98.800003
2019-02-16T09:26:43.315Z,97.199997
2019-02-16T09:31:45.507Z,92.400002
2019-02-16T09:36:47.879Z,90.099998
2019-02-16T09:41:50.005Z,89.400002
2019-02-16T09:46:52.453Z,88.699997
2019-02-16T09:51:54.634Z,85.699997
2019-02-16T09:56:57.013Z,85.099998
2019-02-16T10:01:59.333Z,83.900002
2019-02-16T10:07:01.601Z,86.199997
2019-02-16T10:12:03.765Z,80.800003
2019-02-16T10:17:06.176Z,79.5
2019-02-16T10:22:08.439Z,84.599998
2019-02-16T10:27:10.762Z,81.199997
2019-02-16T10:32:13.013Z,79.599998
2019-02-16T10:37:15.383Z,75.5
2019-02-16T10:42:17.574Z,76.699997
2019-02-16T10:47:19.827Z,73.599998
2019-02-16T10:52:54.370Z,75
2019-02-16T10:57:54.418Z,75.099998
2019-02-16T11:02:58.288Z,76.599998
2019-02-16T11:07:59.630Z,72.099998
2019-02-16T11:13:01.373Z,70.5
2019-02-16T11:18:04.801Z,64.400002
2019-02-16T11:23:06.025Z,66.599998
2019-02-16T11:28:08.227Z,70.199997
2019-02-16T11:33:10.593Z,66.5
2019-02-16T11:43:15.162Z,63.200001
2019-02-16T11:48:17.441Z,67
2019-02-16T11:53:21.187Z,58.700001
2019-02-16T11:58:22.087Z,57.200001
2019-02-16T12:03:24.217Z,59.099998
2019-02-16T12:08:26.730Z,54
2019-02-16T12:13:28.956Z,59.400002
2019-02-16T12:18:31.240Z,53.5
2019-02-16T12:23:33.513Z,50.299999
2019-02-16T12:28:35.742Z,58.799999
2019-02-16T12:33:38.157Z,57.099998
2019-02-16T12:38:40.521Z,53.599998
2019-02-16T12:43:52.746Z,52.200001
2019-02-16T12:48:44.881Z,53.700001
2019-02-16T12:53:47.444Z,53.599998
2019-02-16T12:58:49.630Z,61.5
2019-02-16T13:03:51.969Z,58.099998
2019-02-16T13:08:54.144Z,55.799999
2019-02-16T13:13:56.646Z,57.599998
2019-02-16T13:18:58.623Z,54.299999
2019-02-16T13:24:00.958Z,54.400002
2019-02-16T13:29:03.265Z,56.700001
2019-02-16T13:34:05.612Z,56.900002
2019-02-16T13:39:07.984Z,51.099998
2019-02-16T13:44:16.055Z,49.599998
2019-02-16T13:49:12.478Z,46.700001
2019-02-16T13:54:14.681Z,47.299999
2019-02-16T13:59:17.008Z,45.400002
2019-02-16T14:04:19.458Z,45.299999
2019-02-16T14:09:21.560Z,43.700001
2019-02-16T14:14:23.940Z,42.099998
2019-02-16T14:19:26.306Z,43
2019-02-16T14:24:28.559Z,40.099998
2019-02-16T14:29:30.874Z,40
2019-02-16T14:34:33.115Z,43
2019-02-16T14:39:35.365Z,40.900002
2019-02-16T14:44:37.678Z,41
2019-02-16T14:49:40.064Z,40
2019-02-16T14:54:42.373Z,40.700001
2019-02-16T14:59:44.594Z,42.599998
2019-02-16T15:04:46.887Z,41.200001
2019-02-16T15:09:49.284Z,42.299999
2019-02-16T15:14:51.555Z,41.299999
2019-02-16T15:19:53.764Z,42.700001
2019-02-16T15:34:01.776Z,42.799999
2019-02-16T15:39:04.043Z,44.099998
2019-02-16T15:44:06.431Z,44
2019-02-16T15:49:08.647Z,44.099998
2019-02-16T15:54:10.861Z,44
2019-02-16T15:59:13.349Z,45.400002
2019-02-16T16:04:15.548Z,46.400002
2019-02-16T16:09:17.746Z,46.099998
2019-02-16T16:14:20.063Z,46.200001
2019-02-16T16:19:22.356Z,44.299999
2019-02-16T16:24:27.396Z,45.200001
2019-02-16T16:29:27.112Z,45.700001
2019-02-16T16:34:30.420Z,47.200001
2019-02-16T16:39:31.729Z,46.599998
2019-02-16T16:44:33.893Z,48.900002
2019-02-16T16:49:36.067Z,54.599998
2019-02-16T16:54:38.388Z,55.599998
2019-02-16T16:59:40.780Z,59.599998
2019-02-16T17:04:44.799Z,63.400002
2019-02-16T17:09:45.430Z,67
2019-02-16T17:14:47.548Z,67.900002
2019-02-16T17:19:49.877Z,69.900002
2019-02-16T17:24:52.194Z,70.900002
2019-02-16T17:29:54.591Z,68.300003
2019-02-16T17:34:56.792Z,70.699997
2019-02-16T17:39:59.057Z,68.5
2019-02-16T17:45:01.346Z,70.199997
2019-02-16T17:50:04.839Z,71.300003
2019-02-16T17:55:05.983Z,71.599998
2019-02-16T18:00:08.289Z,75.800003
2019-02-16T18:05:10.586Z,78.699997
2019-02-16T18:10:12.967Z,82.5
2019-02-16T18:15:15.322Z,88.400002
2019-02-16T18:20:17.373Z,85.5
2019-02-16T18:25:19.723Z,88.300003
2019-02-16T18:30:23.237Z,95.199997
2019-02-16T18:35:24.371Z,94.199997
2019-02-16T18:40:26.833Z,92.699997
2019-02-16T18:45:29.169Z,90.900002
2019-02-16T18:50:31.748Z,89.400002
2019-02-16T18:55:33.495Z,88.199997
2019-02-16T19:00:35.845Z,89
2019-02-16T19:05:39.187Z,88.699997
2019-02-16T19:10:40.499Z,88.199997
2019-02-16T19:15:42.687Z,89.300003
2019-02-16T19:20:44.980Z,94.300003
2019-02-16T19:25:47.286Z,94.199997
2019-02-16T19:30:49.593Z,99.900002
2019-02-16T19:35:51.814Z,98.900002
2019-02-16T19:40:54.090Z,99.900002
2019-02-16T20:00:02.314Z,94.099998
2019-02-16T20:05:03.773Z,98.300003
2019-02-16T20:10:06.112Z,99.900002
2019-02-16T20:15:08.563Z,99.900002
2019-02-16T20:20:10.698Z,99.900002
2019-02-16T20:25:13.132Z,99.900002
2019-02-16T20:30:15.376Z,99.900002
2019-02-16T20:35:18.190Z,99.900002
2019-02-16T20:40:19.793Z,99.900002
2019-02-16T20:45:22.328Z,99.900002
2019-02-16T20:50:24.526Z,99.900002
2019-02-16T20:55:28.077Z,99.900002
2019-02-16T21:00:29.049Z,99.900002
2019-02-16T21:05:31.360Z,99.900002
2019-02-16T21:10:35.132Z,99.900002
2019-02-16T21:15:36.001Z,99.900002
2019-02-16T21:20:38.259Z,99.900002
2019-02-16T21:25:40.586Z,99.900002
2019-02-16T21:30:42.924Z,99.900002
2019-02-16T21:35:45.127Z,99.900002
2019-02-16T21:40:47.430Z,99.900002
2019-02-16T21:45:49.709Z,99.900002
2019-02-16T21:50:52.042Z,99.900002
2019-02-16T21:55:54.345Z,99.900002
2019-02-16T22:00:56.571Z,99.900002
2019-02-16T22:05:58.813Z,99.900002
2019-02-16T22:11:01.119Z,99.900002
2019-02-16T22:16:03.401Z,99.900002
2019-02-16T22:21:05.861Z,99.900002
2019-02-16T22:26:09.764Z,99.900002
2019-02-16T22:31:10.386Z,99.900002
2019-02-16T22:36:12.666Z,99.900002
2019-02-16T22:41:14.957Z,99.900002
2019-02-16T22:46:18.354Z,99.900002
2019-02-16T22:51:19.560Z,99.900002
2019-02-16T22:56:21.959Z,99.900002
2019-02-16T23:01:24.208Z,99.900002
2019-02-16T23:06:26.348Z,99.900002
2019-02-16T23:11:28.709Z,99.900002
2019-02-16T23:16:30.998Z,99.900002
2019-02-16T23:21:33.205Z,99.900002
2019-02-16T23:26:35.647Z,99.900002
2019-02-16T23:31:37.803Z,99.900002
2019-02-16T23:37:26.686Z,99.900002
2019-02-16T23:42:29.278Z,99.900002
2019-02-16T23:47:30.300Z,99.900002
2019-02-16T23:52:32.491Z,99.900002
2019-02-16T23:57:34.761Z,99.900002
